sensor_id;sensor_type;location;lat;lon;timestamp;pressure;altitude;pressure_sealevel;temperature;humidity
34921;BME280;21128;50.016;20.002;2022-11-20T00:01:25;98634.56;;;-4.42;100.00
34921;BME280;21128;50.016;20.002;2022-11-20T00:04:11;98631.28;;;-4.45;100.00
34921;BME280;21128;50.016;20.002;2022-11-20T00:06:58;98629.64;;;-4.48;100.00
34921;BME280;21128;50.016;20.002;2022-11-20T00:09:43;98629.77;;;-4.51;100.00
34921;BME280;21128;50.016;20.002;2022-11-20T00:12:28;98616.94;;;-4.51;100.00
34921;BME280;21128;50.016;20.002;2022-11-20T00:15:14;98624.70;;;-4.52;100.00
34921;BME280;21128;50.016;20.002;2022-11-20T00:18:00;98631.70;;;-4.58;100.00
34921;BME280;21128;50.016;20.002;2022-11-20T00:20:46;98618.16;;;-4.61;100.00
34921;BME280;21128;50.016;20.002;2022-11-20T00:23:38;98626.83;;;-4.65;100.00
34921;BME280;21128;50.016;20.002;2022-11-20T00:26:25;98627.73;;;-4.66;100.00
34921;BME280;21128;50.016;20.002;2022-11-20T00:29:11;98631.24;;;-4.69;100.00
34921;BME280;21128;50.016;20.002;2022-11-20T00:32:04;98626.95;;;-4.68;100.00
34921;BME280;21128;50.016;20.002;2022-11-20T00:34:56;98630.30;;;-4.66;100.00
34921;BME280;21128;50.016;20.002;2022-11-20T00:37:41;98629.40;;;-4.65;100.00
34921;BME280;21128;50.016;20.002;2022-11-20T00:40:27;98622.66;;;-4.68;100.00
34921;BME280;21128;50.016;20.002;2022-11-20T00:43:13;98616.78;;;-4.71;100.00
34921;BME280;21128;50.016;20.002;2022-11-20T00:46:05;98614.19;;;-4.70;100.00
34921;BME280;21128;50.016;20.002;2022-11-20T00:48:51;98612.46;;;-4.69;100.00
34921;BME280;21128;50.016;20.002;2022-11-20T00:51:37;98616.70;;;-4.68;100.00
34921;BME280;21128;50.016;20.002;2022-11-20T00:54:22;98607.99;;;-4.64;100.00
34921;BME280;21128;50.016;20.002;2022-11-20T00:57:08;98611.45;;;-4.65;100.00
34921;BME280;21128;50.016;20.002;2022-11-20T00:59:53;98606.23;;;-4.62;100.00
34921;BME280;21128;50.016;20.002;2022-11-20T01:02:45;98604.53;;;-4.63;100.00
34921;BME280;21128;50.016;20.002;2022-11-20T01:05:34;98613.06;;;-4.63;100.00
34921;BME280;21128;50.016;20.002;2022-11-20T01:08:20;98603.70;;;-4.64;100.00
34921;BME280;21128;50.016;20.002;2022-11-20T01:11:14;98597.86;;;-4.67;100.00
34921;BME280;21128;50.016;20.002;2022-11-20T01:14:02;98596.96;;;-4.66;100.00
34921;BME280;21128;50.016;20.002;2022-11-20T01:16:50;98594.40;;;-4.66;100.00
34921;BME280;21128;50.016;20.002;2022-11-20T01:19:36;98589.33;;;-4.68;100.00
34921;BME280;21128;50.016;20.002;2022-11-20T01:22:29;98590.94;;;-4.65;100.00
34921;BME280;21128;50.016;20.002;2022-11-20T01:25:14;98599.47;;;-4.65;100.00
34921;BME280;21128;50.016;20.002;2022-11-20T01:28:00;98590.11;;;-4.66;100.00
34921;BME280;21128;50.016;20.002;2022-11-20T01:30:45;98584.98;;;-4.66;100.00
34921;BME280;21128;50.016;20.002;2022-11-20T01:33:52;98584.14;;;-4.66;100.00
34921;BME280;21128;50.016;20.002;2022-11-20T01:36:46;98590.87;;;-4.64;100.00
34921;BME280;21128;50.016;20.002;2022-11-20T01:39:32;98582.30;;;-4.63;100.00
34921;BME280;21128;50.016;20.002;2022-11-20T01:42:18;98586.59;;;-4.63;100.00
34921;BME280;21128;50.016;20.002;2022-11-20T01:49:03;98580.69;;;-4.65;100.00
34921;BME280;21128;50.016;20.002;2022-11-20T01:55:10;98572.91;;;-4.62;100.00
34921;BME280;21128;50.016;20.002;2022-11-20T01:57:57;98578.89;;;-4.63;100.00
34921;BME280;21128;50.016;20.002;2022-11-20T02:00:44;98577.41;;;-4.69;100.00
34921;BME280;21128;50.016;20.002;2022-11-20T02:03:30;98579.02;;;-4.66;100.00
34921;BME280;21128;50.016;20.002;2022-11-20T02:06:24;98579.08;;;-4.68;100.00
34921;BME280;21128;50.016;20.002;2022-11-20T02:09:10;98571.59;;;-4.74;100.00
34921;BME280;21128;50.016;20.002;2022-11-20T02:11:58;98581.91;;;-4.75;100.00
34921;BME280;21128;50.016;20.002;2022-11-20T02:14:44;98588.91;;;-4.81;100.00
34921;BME280;21128;50.016;20.002;2022-11-20T02:17:30;98594.03;;;-4.81;100.00
34921;BME280;21128;50.016;20.002;2022-11-20T02:20:16;98596.71;;;-4.84;100.00
34921;BME280;21128;50.016;20.002;2022-11-20T02:23:12;98601.12;;;-4.87;100.00
34921;BME280;21128;50.016;20.002;2022-11-20T02:26:03;98594.41;;;-4.91;100.00
34921;BME280;21128;50.016;20.002;2022-11-20T02:28:51;98601.27;;;-4.92;100.00
34921;BME280;21128;50.016;20.002;2022-11-20T02:31:40;98600.48;;;-4.94;100.00
34921;BME280;21128;50.016;20.002;2022-11-20T02:34:46;98595.44;;;-4.97;100.00
34921;BME280;21128;50.016;20.002;2022-11-20T02:37:34;98598.95;;;-4.99;100.00
34921;BME280;21128;50.016;20.002;2022-11-20T02:40:21;98593.94;;;-5.02;100.00
34921;BME280;21128;50.016;20.002;2022-11-20T02:43:07;98592.27;;;-5.03;100.00
34921;BME280;21128;50.016;20.002;2022-11-20T02:45:53;98591.47;;;-5.05;100.00
34921;BME280;21128;50.016;20.002;2022-11-20T02:48:39;98595.75;;;-5.06;100.00
34921;BME280;21128;50.016;20.002;2022-11-20T02:51:32;98600.88;;;-5.06;100.00
34921;BME280;21128;50.016;20.002;2022-11-20T02:54:17;98594.92;;;-5.06;100.00
34921;BME280;21128;50.016;20.002;2022-11-20T02:57:03;98590.63;;;-5.06;100.00
34921;BME280;21128;50.016;20.002;2022-11-20T02:59:48;98593.36;;;-5.11;100.00
34921;BME280;21128;50.016;20.002;2022-11-20T03:02:34;98590.88;;;-5.14;100.00
34921;BME280;21128;50.016;20.002;2022-11-20T03:05:20;98589.13;;;-5.12;100.00
34921;BME280;21128;50.016;20.002;2022-11-20T03:08:12;98581.39;;;-5.10;100.00
34921;BME280;21128;50.016;20.002;2022-11-20T03:11:03;98587.34;;;-5.10;100.00
34921;BME280;21128;50.016;20.002;2022-11-20T03:13:49;98588.19;;;-5.09;100.00
34921;BME280;21128;50.016;20.002;2022-11-20T03:16:34;98592.47;;;-5.10;100.00
34921;BME280;21128;50.016;20.002;2022-11-20T03:19:20;98588.23;;;-5.11;100.00
34921;BME280;21128;50.016;20.002;2022-11-20T03:22:06;98580.55;;;-5.11;100.00
34921;BME280;21128;50.016;20.002;2022-11-20T03:24:58;98575.48;;;-5.12;100.00
34921;BME280;21128;50.016;20.002;2022-11-20T03:27:44;98582.42;;;-5.16;100.00
34921;BME280;21128;50.016;20.002;2022-11-20T03:30:30;98585.03;;;-5.17;100.00
34921;BME280;21128;50.016;20.002;2022-11-20T03:33:29;98577.47;;;-5.20;100.00
34921;BME280;21128;50.016;20.002;2022-11-20T03:36:21;98574.20;;;-5.25;100.00
34921;BME280;21128;50.016;20.002;2022-11-20T03:39:07;98572.59;;;-5.28;100.00
34921;BME280;21128;50.016;20.002;2022-11-20T03:41:53;98569.28;;;-5.31;100.00
34921;BME280;21128;50.016;20.002;2022-11-20T03:44:38;98567.78;;;-5.37;100.00
34921;BME280;21128;50.016;20.002;2022-11-20T03:47:24;98570.58;;;-5.45;100.00
34921;BME280;21128;50.016;20.002;2022-11-20T03:50:11;98563.98;;;-5.52;100.00
34921;BME280;21128;50.016;20.002;2022-11-20T03:52:58;98566.55;;;-5.52;100.00
34921;BME280;21128;50.016;20.002;2022-11-20T03:55:43;98571.61;;;-5.50;100.00
34921;BME280;21128;50.016;20.002;2022-11-20T03:58:36;98566.43;;;-5.49;100.00
34921;BME280;21128;50.016;20.002;2022-11-20T04:01:26;98566.38;;;-5.47;100.00
34921;BME280;21128;50.016;20.002;2022-11-20T04:04:12;98561.31;;;-5.49;100.00
34921;BME280;21128;50.016;20.002;2022-11-20T04:06:57;98566.43;;;-5.49;100.00
34921;BME280;21128;50.016;20.002;2022-11-20T04:09:43;98557.14;;;-5.51;100.00
34921;BME280;21128;50.016;20.002;2022-11-20T04:12:32;98553.73;;;-5.52;100.00
34921;BME280;21128;50.016;20.002;2022-11-20T04:15:18;98556.30;;;-5.52;100.00
34921;BME280;21128;50.016;20.002;2022-11-20T04:18:04;98562.26;;;-5.51;100.00
34921;BME280;21128;50.016;20.002;2022-11-20T04:20:50;98562.31;;;-5.53;100.00
34921;BME280;21128;50.016;20.002;2022-11-20T04:23:42;98564.03;;;-5.53;100.00
34921;BME280;21128;50.016;20.002;2022-11-20T04:26:34;98561.61;;;-5.58;100.00
34921;BME280;21128;50.016;20.002;2022-11-20T04:29:20;98551.67;;;-5.67;100.00
34921;BME280;21128;50.016;20.002;2022-11-20T04:32:05;98551.83;;;-5.72;100.00
34921;BME280;21128;50.016;20.002;2022-11-20T04:35:05;98556.24;;;-5.77;100.00
34921;BME280;21128;50.016;20.002;2022-11-20T04:37:51;98557.19;;;-5.79;100.00
34921;BME280;21128;50.016;20.002;2022-11-20T04:40:44;98554.65;;;-5.81;100.00
34921;BME280;21128;50.016;20.002;2022-11-20T04:43:30;98553.81;;;-5.81;100.00
34921;BME280;21128;50.016;20.002;2022-11-20T04:46:16;98552.09;;;-5.81;100.00
34921;BME280;21128;50.016;20.002;2022-11-20T04:49:02;98550.37;;;-5.80;100.00
34921;BME280;21128;50.016;20.002;2022-11-20T04:51:48;98543.50;;;-5.78;100.00
34921;BME280;21128;50.016;20.002;2022-11-20T04:54:34;98545.90;;;-5.74;100.00
34921;BME280;21128;50.016;20.002;2022-11-20T04:57:19;98546.73;;;-5.73;100.00
34921;BME280;21128;50.016;20.002;2022-11-20T05:00:05;98539.03;;;-5.72;100.00
34921;BME280;21128;50.016;20.002;2022-11-20T05:02:51;98537.20;;;-5.68;100.00
34921;BME280;21128;50.016;20.002;2022-11-20T05:05:36;98543.09;;;-5.66;100.00
34921;BME280;21128;50.016;20.002;2022-11-20T05:08:29;98537.03;;;-5.63;100.00
34921;BME280;21128;50.016;20.002;2022-11-20T05:11:17;98543.88;;;-5.64;100.00
34921;BME280;21128;50.016;20.002;2022-11-20T05:14:03;98541.32;;;-5.64;100.00
34921;BME280;21128;50.016;20.002;2022-11-20T05:16:49;98542.12;;;-5.62;100.00
34921;BME280;21128;50.016;20.002;2022-11-20T05:19:34;98546.41;;;-5.62;100.00
34921;BME280;21128;50.016;20.002;2022-11-20T05:22:20;98554.04;;;-5.61;100.00
34921;BME280;21128;50.016;20.002;2022-11-20T05:25:19;98536.01;;;-5.58;100.00
34921;BME280;21128;50.016;20.002;2022-11-20T05:28:04;98538.52;;;-5.56;100.00
34921;BME280;21128;50.016;20.002;2022-11-20T05:30:50;98529.86;;;-5.52;100.00
34921;BME280;21128;50.016;20.002;2022-11-20T05:33:50;98527.25;;;-5.51;100.00
34921;BME280;21128;50.016;20.002;2022-11-20T05:36:35;98523.80;;;-5.50;100.00
34921;BME280;21128;50.016;20.002;2022-11-20T05:39:21;98523.69;;;-5.47;100.00
34921;BME280;21128;50.016;20.002;2022-11-20T05:42:20;98510.02;;;-5.46;100.00
34921;BME280;21128;50.016;20.002;2022-11-20T05:45:18;98510.94;;;-5.48;100.00
34921;BME280;21128;50.016;20.002;2022-11-20T05:48:04;98507.72;;;-5.53;100.00
34921;BME280;21128;50.016;20.002;2022-11-20T05:50:49;98510.58;;;-5.62;100.00
34921;BME280;21128;50.016;20.002;2022-11-20T05:53:36;98510.72;;;-5.67;100.00
34921;BME280;21128;50.016;20.002;2022-11-20T05:56:28;98522.78;;;-5.71;100.00
34921;BME280;21128;50.016;20.002;2022-11-20T05:59:14;98522.81;;;-5.72;100.00
34921;BME280;21128;50.016;20.002;2022-11-20T06:01:59;98524.64;;;-5.76;100.00
34921;BME280;21128;50.016;20.002;2022-11-20T06:04:45;98511.98;;;-5.80;100.00
34921;BME280;21128;50.016;20.002;2022-11-20T06:07:31;98525.72;;;-5.83;100.00
34921;BME280;21128;50.016;20.002;2022-11-20T06:10:17;98525.88;;;-5.87;100.00
34921;BME280;21128;50.016;20.002;2022-11-20T06:13:02;98528.55;;;-5.90;100.00
34921;BME280;21128;50.016;20.002;2022-11-20T06:15:52;98522.78;;;-5.97;100.00
34921;BME280;21128;50.016;20.002;2022-11-20T06:18:38;98519.55;;;-6.02;100.00
34921;BME280;21128;50.016;20.002;2022-11-20T06:21:24;98517.11;;;-6.07;100.00
34921;BME280;21128;50.016;20.002;2022-11-20T06:24:11;98522.23;;;-6.07;100.00
34921;BME280;21128;50.016;20.002;2022-11-20T06:26:56;98516.23;;;-6.06;100.00
34921;BME280;21128;50.016;20.002;2022-11-20T06:29:42;98523.77;;;-6.01;100.00
34921;BME280;21128;50.016;20.002;2022-11-20T06:32:28;98515.11;;;-5.97;100.00
34921;BME280;21128;50.016;20.002;2022-11-20T06:35:20;98514.20;;;-5.94;100.00
34921;BME280;21128;50.016;20.002;2022-11-20T06:38:06;98503.85;;;-5.91;100.00
34921;BME280;21128;50.016;20.002;2022-11-20T06:40:58;98506.30;;;-5.88;100.00
34921;BME280;21128;50.016;20.002;2022-11-20T06:43:43;98501.02;;;-5.84;100.00
34921;BME280;21128;50.016;20.002;2022-11-20T06:46:29;98501.91;;;-5.85;100.00
34921;BME280;21128;50.016;20.002;2022-11-20T06:49:15;98503.85;;;-5.91;100.00
34921;BME280;21128;50.016;20.002;2022-11-20T06:52:00;98502.31;;;-5.97;100.00
34921;BME280;21128;50.016;20.002;2022-11-20T06:54:46;98497.36;;;-6.02;100.00
34921;BME280;21128;50.016;20.002;2022-11-20T06:57:38;98502.47;;;-6.02;100.00
34921;BME280;21128;50.016;20.002;2022-11-20T07:00:24;98502.47;;;-6.02;100.00
34921;BME280;21128;50.016;20.002;2022-11-20T07:03:11;98498.97;;;-5.99;100.00
34921;BME280;21128;50.016;20.002;2022-11-20T07:05:58;98508.19;;;-5.93;100.00
34921;BME280;21128;50.016;20.002;2022-11-20T07:08:45;98508.08;;;-5.90;100.00
34921;BME280;21128;50.016;20.002;2022-11-20T07:11:31;98513.09;;;-5.87;100.00
34921;BME280;21128;50.016;20.002;2022-11-20T07:14:17;98516.64;;;-5.91;100.00
34921;BME280;21128;50.016;20.002;2022-11-20T07:17:02;98514.92;;;-5.91;100.00
34921;BME280;21128;50.016;20.002;2022-11-20T07:19:48;98510.48;;;-5.86;100.00
34921;BME280;21128;50.016;20.002;2022-11-20T07:22:33;98515.42;;;-5.81;100.00
34921;BME280;21128;50.016;20.002;2022-11-20T07:25:26;98511.20;;;-5.82;100.00
34921;BME280;21128;50.016;20.002;2022-11-20T07:28:12;98508.59;;;-5.81;100.00
34921;BME280;21128;50.016;20.002;2022-11-20T07:30:59;98515.24;;;-5.75;100.00
34921;BME280;21128;50.016;20.002;2022-11-20T07:33:59;98520.30;;;-5.74;100.00
34921;BME280;21128;50.016;20.002;2022-11-20T07:36:51;98525.96;;;-5.64;100.00
34921;BME280;21128;50.016;20.002;2022-11-20T07:39:36;98521.13;;;-5.47;100.00
34921;BME280;21128;50.016;20.002;2022-11-20T07:42:29;98526.94;;;-5.42;100.00
34921;BME280;21128;50.016;20.002;2022-11-20T07:45:14;98528.72;;;-5.44;100.00
34921;BME280;21128;50.016;20.002;2022-11-20T07:48:00;98531.23;;;-5.42;100.00
34921;BME280;21128;50.016;20.002;2022-11-20T07:50:45;98535.41;;;-5.40;100.00
34921;BME280;21128;50.016;20.002;2022-11-20T07:53:31;98531.11;;;-5.39;100.00
34921;BME280;21128;50.016;20.002;2022-11-20T07:56:16;98531.09;;;-5.37;100.00
34921;BME280;21128;50.016;20.002;2022-11-20T07:59:03;98543.78;;;-5.34;100.00
34921;BME280;21128;50.016;20.002;2022-11-20T08:01:48;98535.20;;;-5.33;100.00
34921;BME280;21128;50.016;20.002;2022-11-20T08:04:40;98536.94;;;-5.34;100.00
34921;BME280;21128;50.016;20.002;2022-11-20T08:07:26;98538.66;;;-5.34;100.00
34921;BME280;21128;50.016;20.002;2022-11-20T08:10:13;98538.80;;;-5.39;100.00
34921;BME280;21128;50.016;20.002;2022-11-20T08:12:59;98539.63;;;-5.39;100.00
34921;BME280;21128;50.016;20.002;2022-11-20T08:16:04;98534.38;;;-5.34;100.00
34921;BME280;21128;50.016;20.002;2022-11-20T08:18:49;98534.43;;;-5.35;100.00
34921;BME280;21128;50.016;20.002;2022-11-20T08:21:35;98534.56;;;-5.40;100.00
34921;BME280;21128;50.016;20.002;2022-11-20T08:24:20;98523.41;;;-5.37;100.00
34921;BME280;21128;50.016;20.002;2022-11-20T08:27:12;98523.30;;;-5.34;100.00
34921;BME280;21128;50.016;20.002;2022-11-20T08:29:57;98519.84;;;-5.33;100.00
34921;BME280;21128;50.016;20.002;2022-11-20T08:32:50;98514.61;;;-5.30;100.00
34921;BME280;21128;50.016;20.002;2022-11-20T08:35:42;98515.30;;;-5.25;100.00
34921;BME280;21128;50.016;20.002;2022-11-20T08:38:28;98518.49;;;-5.19;100.00
34921;BME280;21128;50.016;20.002;2022-11-20T08:41:21;98519.12;;;-5.12;100.00
34921;BME280;21128;50.016;20.002;2022-11-20T08:44:13;98508.64;;;-5.06;100.00
34921;BME280;21128;50.016;20.002;2022-11-20T08:47:06;98513.44;;;-4.97;100.00
34921;BME280;21128;50.016;20.002;2022-11-20T08:49:51;98512.19;;;-4.85;100.00
34921;BME280;21128;50.016;20.002;2022-11-20T08:52:37;98511.98;;;-4.79;100.00
34921;BME280;21128;50.016;20.002;2022-11-20T08:55:24;98506.55;;;-4.71;100.00
34921;BME280;21128;50.016;20.002;2022-11-20T08:58:09;98504.79;;;-4.69;100.00
34921;BME280;21128;50.016;20.002;2022-11-20T09:00:55;98501.14;;;-4.64;100.00
34921;BME280;21128;50.016;20.002;2022-11-20T09:03:40;98502.53;;;-4.55;100.00
34921;BME280;21128;50.016;20.002;2022-11-20T09:06:27;98500.42;;;-4.44;100.00
34921;BME280;21128;50.016;20.002;2022-11-20T09:09:12;98500.14;;;-4.36;100.00
34921;BME280;21128;50.016;20.002;2022-11-20T09:11:58;98503.28;;;-4.30;100.00
34921;BME280;21128;50.016;20.002;2022-11-20T09:14:43;98489.34;;;-4.22;100.00
34921;BME280;21128;50.016;20.002;2022-11-20T09:17:29;98495.74;;;-4.11;100.00
34921;BME280;21128;50.016;20.002;2022-11-20T09:20:15;98492.87;;;-4.03;100.00
34921;BME280;21128;50.016;20.002;2022-11-20T09:23:01;98491.68;;;-3.94;100.00
34921;BME280;21128;50.016;20.002;2022-11-20T09:25:47;98493.28;;;-3.92;100.00
34921;BME280;21128;50.016;20.002;2022-11-20T09:28:32;98491.41;;;-3.88;100.00
34921;BME280;21128;50.016;20.002;2022-11-20T09:31:23;98485.21;;;-3.83;100.00
34921;BME280;21128;50.016;20.002;2022-11-20T09:34:22;98486.50;;;-3.73;100.00
34921;BME280;21128;50.016;20.002;2022-11-20T09:37:21;98491.40;;;-3.66;100.00
34921;BME280;21128;50.016;20.002;2022-11-20T09:40:21;98492.93;;;-3.62;100.00
34921;BME280;21128;50.016;20.002;2022-11-20T09:46:16;98496.91;;;-3.76;100.00
34921;BME280;21128;50.016;20.002;2022-11-20T09:55:48;98503.18;;;-3.83;100.00
34921;BME280;21128;50.016;20.002;2022-11-20T09:58:55;98502.34;;;-3.83;100.00
34921;BME280;21128;50.016;20.002;2022-11-20T10:01:43;98497.14;;;-3.82;100.00
34921;BME280;21128;50.016;20.002;2022-11-20T10:04:31;98498.58;;;-3.75;100.00
34921;BME280;21128;50.016;20.002;2022-11-20T10:07:23;98498.03;;;-3.61;100.00
34921;BME280;21128;50.016;20.002;2022-11-20T10:10:16;98499.25;;;-3.49;100.00
34921;BME280;21128;50.016;20.002;2022-11-20T10:13:20;98497.06;;;-3.38;100.00
34921;BME280;21128;50.016;20.002;2022-11-20T10:16:19;98507.16;;;-3.33;100.00
34921;BME280;21128;50.016;20.002;2022-11-20T10:22:44;98499.36;;;-3.12;100.00
34921;BME280;21128;50.016;20.002;2022-11-20T10:31:40;98490.09;;;-2.95;100.00
34921;BME280;21128;50.016;20.002;2022-11-20T10:37:41;98491.23;;;-2.82;100.00
34921;BME280;21128;50.016;20.002;2022-11-20T10:40:53;98483.26;;;-2.76;100.00
34921;BME280;21128;50.016;20.002;2022-11-20T10:44:03;98476.80;;;-2.66;100.00
34921;BME280;21128;50.016;20.002;2022-11-20T10:46:51;98474.91;;;-2.62;100.00
34921;BME280;21128;50.016;20.002;2022-11-20T10:49:36;98467.75;;;-2.56;100.00
34921;BME280;21128;50.016;20.002;2022-11-20T10:55:40;98447.11;;;-2.35;100.00
34921;BME280;21128;50.016;20.002;2022-11-20T10:58:43;98443.95;;;-2.23;100.00
34921;BME280;21128;50.016;20.002;2022-11-20T11:01:41;98447.15;;;-2.18;100.00
34921;BME280;21128;50.016;20.002;2022-11-20T11:04:40;98444.34;;;-2.13;100.00
34921;BME280;21128;50.016;20.002;2022-11-20T11:07:33;98430.44;;;-2.09;100.00
34921;BME280;21128;50.016;20.002;2022-11-20T11:10:45;98432.09;;;-2.08;100.00
34921;BME280;21128;50.016;20.002;2022-11-20T11:13:33;98428.61;;;-2.07;100.00
34921;BME280;21128;50.016;20.002;2022-11-20T11:16:26;98423.17;;;-2.01;100.00
34921;BME280;21128;50.016;20.002;2022-11-20T11:19:13;98420.52;;;-2.00;100.00
34921;BME280;21128;50.016;20.002;2022-11-20T11:21:59;98422.77;;;-1.93;100.00
34921;BME280;21128;50.016;20.002;2022-11-20T11:24:53;98420.20;;;-1.93;100.00
34921;BME280;21128;50.016;20.002;2022-11-20T11:27:47;98417.50;;;-1.90;100.00
34921;BME280;21128;50.016;20.002;2022-11-20T11:30:43;98426.59;;;-1.83;100.00
34921;BME280;21128;50.016;20.002;2022-11-20T11:33:31;98422.27;;;-1.83;100.00
34921;BME280;21128;50.016;20.002;2022-11-20T11:36:23;98414.30;;;-1.78;100.00
34921;BME280;21128;50.016;20.002;2022-11-20T11:39:18;98413.34;;;-1.76;100.00
34921;BME280;21128;50.016;20.002;2022-11-20T11:42:07;98409.69;;;-1.72;100.00
34921;BME280;21128;50.016;20.002;2022-11-20T11:44:59;98408.39;;;-1.63;100.00
34921;BME280;21128;50.016;20.002;2022-11-20T11:50:49;98394.13;;;-1.53;100.00
34921;BME280;21128;50.016;20.002;2022-11-20T11:53:45;98382.86;;;-1.50;100.00
34921;BME280;21128;50.016;20.002;2022-11-20T11:56:33;98383.36;;;-1.44;100.00
34921;BME280;21128;50.016;20.002;2022-11-20T11:59:27;98370.25;;;-1.39;100.00
34921;BME280;21128;50.016;20.002;2022-11-20T12:02:38;98369.25;;;-1.36;100.00
34921;BME280;21128;50.016;20.002;2022-11-20T12:05:30;98374.27;;;-1.33;100.00
34921;BME280;21128;50.016;20.002;2022-11-20T12:08:27;98374.84;;;-1.28;100.00
34921;BME280;21128;50.016;20.002;2022-11-20T12:14:35;98379.86;;;-1.25;100.00
34921;BME280;21128;50.016;20.002;2022-11-20T12:17:22;98374.70;;;-1.25;100.00
34921;BME280;21128;50.016;20.002;2022-11-20T12:20:13;98374.17;;;-1.32;100.00
34921;BME280;21128;50.016;20.002;2022-11-20T12:23:15;98378.89;;;-1.40;100.00
34921;BME280;21128;50.016;20.002;2022-11-20T12:26:10;98381.47;;;-1.40;100.00
34921;BME280;21128;50.016;20.002;2022-11-20T12:29:13;98379.55;;;-1.36;100.00
34921;BME280;21128;50.016;20.002;2022-11-20T12:51:21;98374.72;;;-0.94;100.00
34921;BME280;21128;50.016;20.002;2022-11-20T12:57:35;98367.91;;;-0.95;100.00
34921;BME280;21128;50.016;20.002;2022-11-20T13:00:26;98362.09;;;-0.98;100.00
34921;BME280;21128;50.016;20.002;2022-11-20T13:03:39;98362.18;;;-1.00;100.00
34921;BME280;21128;50.016;20.002;2022-11-20T13:06:27;98345.37;;;-1.07;100.00
34921;BME280;21128;50.016;20.002;2022-11-20T13:09:15;98348.09;;;-1.10;100.00
34921;BME280;21128;50.016;20.002;2022-11-20T13:18:39;98328.24;;;-0.92;100.00
34921;BME280;21128;50.016;20.002;2022-11-20T13:21:42;98332.48;;;-0.91;100.00
34921;BME280;21128;50.016;20.002;2022-11-20T13:24:30;98327.56;;;-0.96;100.00
34921;BME280;21128;50.016;20.002;2022-11-20T13:27:19;98327.47;;;-0.94;100.00
34921;BME280;21128;50.016;20.002;2022-11-20T13:30:22;98330.88;;;-0.94;100.00
34921;BME280;21128;50.016;20.002;2022-11-20T13:33:27;98327.38;;;-0.93;100.00
34921;BME280;21128;50.016;20.002;2022-11-20T13:36:26;98314.91;;;-0.85;100.00
34921;BME280;21128;50.016;20.002;2022-11-20T13:39:12;98295.78;;;-0.80;100.00
34921;BME280;21128;50.016;20.002;2022-11-20T13:44:54;98293.44;;;-0.85;100.00
34921;BME280;21128;50.016;20.002;2022-11-20T13:47:48;98293.80;;;-0.91;100.00
34921;BME280;21128;50.016;20.002;2022-11-20T13:50:43;98296.43;;;-0.93;100.00
34921;BME280;21128;50.016;20.002;2022-11-20T14:00:17;98300.19;;;-1.14;100.00
34921;BME280;21128;50.016;20.002;2022-11-20T14:05:56;98304.67;;;-1.33;100.00
34921;BME280;21128;50.016;20.002;2022-11-20T14:08:47;98309.22;;;-1.38;100.00
34921;BME280;21128;50.016;20.002;2022-11-20T14:11:47;98310.97;;;-1.39;100.00
34921;BME280;21128;50.016;20.002;2022-11-20T14:14:48;98307.66;;;-1.41;100.00
34921;BME280;21128;50.016;20.002;2022-11-20T14:17:36;98309.31;;;-1.40;100.00
34921;BME280;21128;50.016;20.002;2022-11-20T14:20:25;98304.07;;;-1.38;100.00
34921;BME280;21128;50.016;20.002;2022-11-20T14:23:11;98299.75;;;-1.38;100.00
34921;BME280;21128;50.016;20.002;2022-11-20T14:25:57;98283.54;;;-1.40;100.00
34921;BME280;21128;50.016;20.002;2022-11-20T14:28:48;98277.87;;;-1.47;100.00
34921;BME280;21128;50.016;20.002;2022-11-20T14:31:34;98291.90;;;-1.52;100.00
34921;BME280;21128;50.016;20.002;2022-11-20T14:34:23;98282.68;;;-1.56;100.00
34921;BME280;21128;50.016;20.002;2022-11-20T14:37:20;98291.47;;;-1.60;100.00
34921;BME280;21128;50.016;20.002;2022-11-20T14:40:35;98290.80;;;-1.64;100.00
34921;BME280;21128;50.016;20.002;2022-11-20T14:43:27;98286.66;;;-1.66;100.00
34921;BME280;21128;50.016;20.002;2022-11-20T14:46:14;98285.22;;;-1.72;100.00
34921;BME280;21128;50.016;20.002;2022-11-20T14:49:01;98274.39;;;-1.79;100.00
34921;BME280;21128;50.016;20.002;2022-11-20T14:51:59;98278.05;;;-1.83;100.00
34921;BME280;21128;50.016;20.002;2022-11-20T14:54:51;98273.20;;;-1.89;100.00
34921;BME280;21128;50.016;20.002;2022-11-20T14:57:55;98276.00;;;-1.93;100.00
34921;BME280;21128;50.016;20.002;2022-11-20T15:00:41;98268.70;;;-2.01;100.00
34921;BME280;21128;50.016;20.002;2022-11-20T15:03:35;98274.97;;;-2.07;100.00
34921;BME280;21128;50.016;20.002;2022-11-20T15:06:26;98269.13;;;-2.10;100.00
34921;BME280;21128;50.016;20.002;2022-11-20T15:09:14;98264.23;;;-2.15;100.00
34921;BME280;21128;50.016;20.002;2022-11-20T15:12:17;98262.70;;;-2.19;100.00
34921;BME280;21128;50.016;20.002;2022-11-20T15:15:03;98265.45;;;-2.22;100.00
34921;BME280;21128;50.016;20.002;2022-11-20T15:17:51;98267.35;;;-2.25;100.00
34921;BME280;21128;50.016;20.002;2022-11-20T15:20:37;98272.71;;;-2.30;100.00
34921;BME280;21128;50.016;20.002;2022-11-20T15:23:22;98269.39;;;-2.32;100.00
34921;BME280;21128;50.016;20.002;2022-11-20T15:26:10;98283.17;;;-2.33;100.00
34921;BME280;21128;50.016;20.002;2022-11-20T15:28:56;98278.10;;;-2.35;100.00
34921;BME280;21128;50.016;20.002;2022-11-20T15:31:41;98262.72;;;-2.36;100.00
34921;BME280;21128;50.016;20.002;2022-11-20T15:34:35;98257.73;;;-2.39;100.00
34921;BME280;21128;50.016;20.002;2022-11-20T15:37:20;98258.64;;;-2.40;100.00
34921;BME280;21128;50.016;20.002;2022-11-20T15:40:07;98257.81;;;-2.41;100.00
34921;BME280;21128;50.016;20.002;2022-11-20T15:43:00;98258.80;;;-2.43;100.00
34921;BME280;21128;50.016;20.002;2022-11-20T15:45:56;98251.97;;;-2.44;100.00
34921;BME280;21128;50.016;20.002;2022-11-20T15:48:45;98249.47;;;-2.46;100.00
34921;BME280;21128;50.016;20.002;2022-11-20T15:51:34;98246.07;;;-2.46;100.00
34921;BME280;21128;50.016;20.002;2022-11-20T15:54:21;98249.47;;;-2.46;100.00
34921;BME280;21128;50.016;20.002;2022-11-20T15:57:07;98248.64;;;-2.46;100.00